createdAt,value
2023-01-25T00:02:02.206Z,97462.97
2023-01-25T00:04:28.786Z,97457.34
2023-01-25T00:06:55.280Z,97467.44
2023-01-25T00:09:22.065Z,97465.94
2023-01-25T00:11:48.507Z,97474.84
2023-01-25T00:14:15.652Z,97472.16
2023-01-25T00:16:42.838Z,97482.53
2023-01-25T00:19:10.422Z,97466.91
2023-01-25T00:21:37.280Z,97459.38
2023-01-25T00:24:04.197Z,97455.50
2023-01-25T00:26:31.227Z,97452.47
2023-01-25T00:28:57.688Z,97448.41
2023-01-25T00:31:43.160Z,97449.75
2023-01-25T00:34:21.537Z,97447.53
2023-01-25T00:36:49.898Z,97436.53
2023-01-25T00:39:16.502Z,97433.53
2023-01-25T00:41:43.474Z,97428.56
2023-01-25T00:44:10.183Z,97429.06
2023-01-25T00:46:36.634Z,97414.97
2023-01-25T00:49:03.196Z,97424.81
2023-01-25T00:51:29.653Z,97415.13
2023-01-25T00:53:56.200Z,97423.16
2023-01-25T00:56:22.864Z,97426.28
2023-01-25T00:58:49.374Z,97425.19
2023-01-25T01:01:15.882Z,97431.03
2023-01-25T01:03:42.357Z,97424.41
2023-01-25T01:06:11.090Z,97422.72
2023-01-25T01:08:41.212Z,97424.59
2023-01-25T01:11:09.791Z,97416.88
2023-01-25T01:13:36.691Z,97420.56
2023-01-25T01:16:04.057Z,97414.16
2023-01-25T01:18:34.467Z,97415.78
2023-01-25T01:21:00.928Z,97408.91
2023-01-25T01:23:28.418Z,97414.97
2023-01-25T01:25:54.827Z,97410.56
2023-01-25T01:28:21.289Z,97414.97
2023-01-25T01:30:47.713Z,97410.06
2023-01-25T01:33:14.185Z,97407.34
2023-01-25T01:35:40.605Z,97411.75
2023-01-25T01:38:07.199Z,97402.94
2023-01-25T01:40:33.693Z,97392.16
2023-01-25T01:43:04.584Z,97399.88
2023-01-25T01:45:51.197Z,97398.09
2023-01-25T01:48:33.019Z,97387.66
2023-01-25T01:51:19.888Z,97394.66
2023-01-25T01:53:49.996Z,97390.03
2023-01-25T01:56:21.169Z,97387.28
2023-01-25T01:58:49.476Z,97374.44
2023-01-25T02:01:17.224Z,97374.25
2023-01-25T02:04:02.511Z,97370.44
2023-01-25T02:06:34.585Z,97367.72
2023-01-25T02:09:01.849Z,97360.38
2023-01-25T02:11:29.215Z,97371.63
2023-01-25T02:13:58.115Z,97375.28
2023-01-25T02:16:25.749Z,97368.31
2023-01-25T02:18:53.732Z,97371.16
2023-01-25T02:21:20.981Z,97371.63
2023-01-25T02:23:50.427Z,97374.69
2023-01-25T02:26:18.523Z,97371.56
2023-01-25T02:28:47.971Z,97367.53
2023-01-25T02:31:14.483Z,97358.03
2023-01-25T02:33:40.936Z,97362.34
2023-01-25T02:36:07.380Z,97355.16
2023-01-25T02:38:39.183Z,97351.22
2023-01-25T02:41:09.027Z,97344.16
2023-01-25T02:43:35.900Z,97351.94
2023-01-25T02:46:06.284Z,97345.50
2023-01-25T02:48:32.777Z,97345.53
2023-01-25T02:50:59.214Z,97343.75
2023-01-25T02:53:25.688Z,97336.91
2023-01-25T02:55:52.110Z,97344.13
2023-01-25T02:58:18.572Z,97345.41
2023-01-25T03:00:44.982Z,97347.28
2023-01-25T03:03:11.435Z,97345.63
2023-01-25T03:05:37.920Z,97342.69
2023-01-25T03:08:04.436Z,97347.28
2023-01-25T03:10:30.861Z,97338.31
2023-01-25T03:12:57.341Z,97339.19
2023-01-25T03:15:23.815Z,97342.63
2023-01-25T03:17:50.285Z,97340.03
2023-01-25T03:20:16.812Z,97338.34
2023-01-25T03:22:43.259Z,97337.41
2023-01-25T03:25:10.153Z,97344.09
2023-01-25T03:27:36.985Z,97329.31
2023-01-25T03:30:03.768Z,97325.91
2023-01-25T03:32:30.357Z,97318.47
2023-01-25T03:34:56.837Z,97328.06
2023-01-25T03:37:23.321Z,97320.84
2023-01-25T03:39:49.769Z,97320.22
2023-01-25T03:42:16.203Z,97321.66
2023-01-25T03:44:42.665Z,97321.88
2023-01-25T03:47:09.153Z,97317.63
2023-01-25T03:49:35.705Z,97318.56
2023-01-25T03:52:02.177Z,97314.28
2023-01-25T03:54:28.657Z,97313.78
2023-01-25T03:56:55.223Z,97312.09
2023-01-25T03:59:21.655Z,97308.31
2023-01-25T04:01:48.187Z,97312.03
2023-01-25T04:04:14.637Z,97299.59
2023-01-25T04:06:41.091Z,97292.97
2023-01-25T04:09:07.788Z,97298.44
2023-01-25T04:11:34.402Z,97300.69
2023-01-25T04:14:01.099Z,97290.97
2023-01-25T04:16:28.141Z,97291.34
2023-01-25T04:18:54.551Z,97292.03
2023-01-25T04:21:20.983Z,97298.63
2023-01-25T04:23:47.492Z,97291.53
2023-01-25T04:26:14.604Z,97297.72
2023-01-25T04:28:41.048Z,97293.94
2023-01-25T04:31:07.563Z,97298.91
2023-01-25T04:33:34.302Z,97299.66
2023-01-25T04:36:00.751Z,97302.13
2023-01-25T04:38:27.441Z,97296.78
2023-01-25T04:40:53.886Z,97300.13
2023-01-25T04:43:20.744Z,97292.53
2023-01-25T04:45:47.494Z,97290.41
2023-01-25T04:48:14.465Z,97288.28
2023-01-25T04:50:41.731Z,97284.72
2023-01-25T04:53:08.981Z,97288.16
2023-01-25T04:55:35.551Z,97287.09
2023-01-25T04:58:02.599Z,97291.25
2023-01-25T05:00:29.599Z,97285.31
2023-01-25T05:02:56.048Z,97285.22
2023-01-25T05:05:22.724Z,97291.25
2023-01-25T05:07:49.349Z,97286.16
2023-01-25T05:10:16.017Z,97283.41
2023-01-25T05:12:42.467Z,97280.00
2023-01-25T05:15:09.390Z,97284.72
2023-01-25T05:17:36.060Z,97292.19
2023-01-25T05:20:02.819Z,97287.81
2023-01-25T05:22:29.383Z,97290.53
2023-01-25T05:24:55.833Z,97287.09
2023-01-25T05:27:22.982Z,97283.53
2023-01-25T05:29:49.435Z,97276.41
2023-01-25T05:32:20.297Z,97276.66
2023-01-25T05:34:47.051Z,97270.72
2023-01-25T05:37:15.360Z,97261.34
2023-01-25T05:39:41.815Z,97256.84
2023-01-25T05:42:12.641Z,97259.44
2023-01-25T05:44:39.139Z,97256.03
2023-01-25T05:47:05.668Z,97259.56
2023-01-25T05:49:32.116Z,97262.06
2023-01-25T05:51:58.551Z,97255.19
2023-01-25T05:54:25.076Z,97255.53
2023-01-25T05:56:51.540Z,97248.66
2023-01-25T05:59:18.111Z,97258.38
2023-01-25T06:01:44.815Z,97251.50
2023-01-25T06:04:15.495Z,97258.03
2023-01-25T06:06:42.133Z,97260.66
2023-01-25T06:09:10.339Z,97262.91
2023-01-25T06:11:36.779Z,97270.34
2023-01-25T06:14:03.424Z,97262.06
2023-01-25T06:16:29.876Z,97260.97
2023-01-25T06:18:56.347Z,97257.56
2023-01-25T06:21:22.784Z,97257.56
2023-01-25T06:23:49.260Z,97262.06
2023-01-25T06:26:15.782Z,97256.59
2023-01-25T06:28:42.323Z,97258.13
2023-01-25T06:31:13.130Z,97253.75
2023-01-25T06:33:40.324Z,97256.47
2023-01-25T06:36:11.853Z,97254.72
2023-01-25T06:38:38.868Z,97255.03
2023-01-25T06:41:06.071Z,97256.50
2023-01-25T06:43:34.606Z,97260.03
2023-01-25T06:46:01.888Z,97258.50
2023-01-25T06:48:29.210Z,97253.50
2023-01-25T06:50:56.775Z,97254.59
2023-01-25T06:53:24.496Z,97260.75
2023-01-25T06:55:56.400Z,97258.03
2023-01-25T06:58:23.080Z,97259.19
2023-01-25T07:00:49.657Z,97253.28
2023-01-25T07:03:16.094Z,97246.28
2023-01-25T07:05:42.527Z,97245.81
2023-01-25T07:08:08.951Z,97229.91
2023-01-25T07:10:35.424Z,97240.34
2023-01-25T07:13:01.923Z,97238.19
2023-01-25T07:15:28.422Z,97231.94
2023-01-25T07:17:54.873Z,97238.69
2023-01-25T07:20:21.318Z,97228.22
2023-01-25T07:22:47.751Z,97233.31
2023-01-25T07:25:14.343Z,97238.31
2023-01-25T07:27:40.817Z,97242.72
2023-01-25T07:30:07.478Z,97240.91
2023-01-25T07:32:34.484Z,97232.63
2023-01-25T07:35:00.996Z,97233.44
2023-01-25T07:37:27.874Z,97229.38
2023-01-25T07:39:55.238Z,97229.16
2023-01-25T07:42:21.702Z,97228.78
2023-01-25T07:44:48.167Z,97217.16
2023-01-25T07:47:15.312Z,97210.00
2023-01-25T07:49:41.843Z,97219.66
2023-01-25T07:52:08.369Z,97223.94
2023-01-25T07:54:34.998Z,97213.00
2023-01-25T07:57:01.428Z,97207.75
2023-01-25T07:59:28.104Z,97218.22
2023-01-25T08:01:54.607Z,97223.19
2023-01-25T08:04:21.187Z,97213.69
2023-01-25T08:06:47.626Z,97212.63
2023-01-25T08:09:19.948Z,97216.56
2023-01-25T08:11:47.275Z,97213.25
2023-01-25T08:14:13.711Z,97216.31
2023-01-25T08:16:40.181Z,97212.25
2023-01-25T08:19:07.263Z,97205.22
2023-01-25T08:21:34.782Z,97209.41
2023-01-25T08:24:03.905Z,97197.75
2023-01-25T08:26:30.433Z,97195.50
2023-01-25T08:28:57.159Z,97190.91
2023-01-25T08:31:30.673Z,97190.78
2023-01-25T08:33:57.364Z,97193.66
2023-01-25T08:36:24.376Z,97197.34
2023-01-25T08:38:53.966Z,97202.34
2023-01-25T08:41:20.516Z,97202.09
2023-01-25T08:43:47.340Z,97194.25
2023-01-25T08:46:14.760Z,97206.34
2023-01-25T08:48:41.242Z,97197.09
2023-01-25T08:51:15.266Z,97202.09
2023-01-25T08:53:41.985Z,97194.50
2023-01-25T08:56:10.088Z,97196.84
2023-01-25T08:58:40.770Z,97193.19
2023-01-25T09:01:09.092Z,97191.75
2023-01-25T09:03:36.970Z,97189.59
2023-01-25T09:06:03.768Z,97190.91
2023-01-25T09:08:30.205Z,97191.16
2023-01-25T09:11:00.607Z,97186.44
2023-01-25T09:13:27.069Z,97180.34
2023-01-25T09:15:58.527Z,97172.63
2023-01-25T09:18:25.040Z,97175.94
2023-01-25T09:20:51.474Z,97173.94
2023-01-25T09:23:19.664Z,97176.34
2023-01-25T09:25:46.108Z,97170.28
2023-01-25T09:28:12.548Z,97167.16
2023-01-25T09:30:47.303Z,97163.09
2023-01-25T09:33:16.413Z,97158.59
2023-01-25T09:35:47.255Z,97163.34
2023-01-25T09:38:13.710Z,97164.97
2023-01-25T09:40:45.491Z,97161.66
2023-01-25T09:43:24.303Z,97163.63
2023-01-25T09:45:50.869Z,97154.22
2023-01-25T09:48:36.332Z,97145.25
2023-01-25T09:51:02.755Z,97141.41
2023-01-25T09:53:32.196Z,97138.78
2023-01-25T09:56:01.351Z,97125.84
2023-01-25T09:58:40.005Z,97131.88
2023-01-25T10:01:17.789Z,97133.72
2023-01-25T10:04:10.435Z,97129.94
2023-01-25T10:06:39.479Z,97121.38
2023-01-25T10:09:12.007Z,97115.56
2023-01-25T10:11:39.290Z,97095.97
2023-01-25T10:14:12.581Z,97097.81
2023-01-25T10:16:39.004Z,97088.63
2023-01-25T10:19:14.940Z,97093.00
2023-01-25T10:21:43.500Z,97087.25
2023-01-25T10:24:12.732Z,97084.63
2023-01-25T10:26:42.409Z,97080.69
2023-01-25T10:29:11.960Z,97080.81
2023-01-25T10:31:50.584Z,97070.50
2023-01-25T10:34:20.290Z,97064.69
2023-01-25T10:36:49.343Z,97064.38
2023-01-25T10:39:17.277Z,97059.59
2023-01-25T10:41:47.507Z,97071.31
2023-01-25T10:44:26.821Z,97064.88
2023-01-25T10:47:02.453Z,97057.69
2023-01-25T10:49:34.878Z,97047.69
2023-01-25T10:52:18.210Z,97040.91
2023-01-25T10:54:45.085Z,97042.69
2023-01-25T10:57:17.340Z,97039.31
2023-01-25T10:59:48.219Z,97028.47
2023-01-25T11:02:33.383Z,97030.16
2023-01-25T11:05:15.473Z,97027.09
2023-01-25T11:07:41.923Z,97014.91
2023-01-25T11:10:27.411Z,97014.34
2023-01-25T11:13:12.780Z,97014.03
2023-01-25T11:15:39.628Z,97016.06
2023-01-25T11:18:07.136Z,97002.31
2023-01-25T11:20:33.590Z,97008.75
2023-01-25T11:23:00.185Z,97002.56
2023-01-25T11:25:31.343Z,97002.44
2023-01-25T11:28:16.524Z,97000.97
2023-01-25T11:30:43.233Z,96979.66
2023-01-25T11:33:14.281Z,96983.00
2023-01-25T11:35:47.772Z,96977.75
2023-01-25T11:38:16.657Z,96988.75
2023-01-25T11:40:47.122Z,96985.69
2023-01-25T11:43:32.527Z,96980.19
2023-01-25T11:46:05.106Z,96978.28
2023-01-25T11:48:50.516Z,96975.28
2023-01-25T11:51:33.615Z,96975.13
2023-01-25T11:54:16.039Z,96967.91
2023-01-25T11:56:54.768Z,96957.00
2023-01-25T11:59:29.012Z,96954.66
2023-01-25T12:02:14.274Z,96946.09
2023-01-25T12:04:43.538Z,96943.16
2023-01-25T12:07:16.291Z,96932.13
2023-01-25T12:09:50.603Z,96942.81
2023-01-25T12:12:32.287Z,96938.44
2023-01-25T12:14:58.718Z,96938.25
2023-01-25T12:17:32.513Z,96939.44
2023-01-25T12:20:10.234Z,96939.69
2023-01-25T12:22:43.023Z,96927.63
2023-01-25T12:25:30.393Z,96932.63
2023-01-25T12:28:02.945Z,96937.38
2023-01-25T12:30:48.125Z,96936.19
2023-01-25T12:33:37.709Z,96936.38
2023-01-25T12:36:04.233Z,96921.88
2023-01-25T12:38:36.943Z,96917.97
2023-01-25T12:41:08.451Z,96917.50
2023-01-25T12:44:04.418Z,96916.03
2023-01-25T12:46:34.661Z,96914.22
2023-01-25T12:49:04.445Z,96907.41
2023-01-25T12:51:34.680Z,96907.41
2023-01-25T12:54:06.842Z,96911.81
2023-01-25T12:56:44.216Z,96906.25
2023-01-25T12:59:36.650Z,96907.09
2023-01-25T13:02:06.162Z,96893.91
2023-01-25T13:04:51.309Z,96907.38
2023-01-25T13:07:20.471Z,96893.59
2023-01-25T13:09:55.275Z,96897.09
2023-01-25T13:12:21.842Z,96895.06
2023-01-25T13:14:48.352Z,96900.28
2023-01-25T13:17:30.575Z,96893.91
2023-01-25T13:19:57.245Z,96895.31
2023-01-25T13:22:42.929Z,96900.09
2023-01-25T13:25:21.674Z,96896.28
2023-01-25T13:27:48.274Z,96887.50
2023-01-25T13:30:27.077Z,96879.66
2023-01-25T13:32:55.642Z,96871.13
2023-01-25T13:35:26.707Z,96873.31
2023-01-25T13:38:01.221Z,96868.47
2023-01-25T13:40:30.531Z,96872.53
2023-01-25T13:43:05.097Z,96873.13
2023-01-25T13:45:34.168Z,96869.22
2023-01-25T13:48:27.796Z,96861.53
2023-01-25T13:50:57.896Z,96857.28
2023-01-25T13:53:26.650Z,96856.50
2023-01-25T13:55:54.813Z,96857.50
2023-01-25T13:58:25.475Z,96854.63
2023-01-25T14:00:56.230Z,96856.72
2023-01-25T14:03:25.738Z,96854.28
2023-01-25T14:05:53.551Z,96842.09
2023-01-25T14:08:20.997Z,96843.69
2023-01-25T14:10:48.460Z,96843.97
2023-01-25T14:13:15.966Z,96837.41
2023-01-25T14:15:51.675Z,96831.91
2023-01-25T14:18:19.524Z,96839.06
2023-01-25T14:20:47.219Z,96832.69
2023-01-25T14:23:21.001Z,96834.59
2023-01-25T14:25:47.457Z,96831.34
2023-01-25T14:28:14.579Z,96828.28
2023-01-25T14:30:41.487Z,96826.00
2023-01-25T14:33:26.099Z,96817.44
2023-01-25T14:35:57.397Z,96823.97
2023-01-25T14:38:31.392Z,96826.44
2023-01-25T14:41:03.673Z,96821.91
2023-01-25T14:43:30.627Z,96814.53
2023-01-25T14:45:57.476Z,96813.41
2023-01-25T14:48:33.957Z,96815.31
2023-01-25T14:51:30.181Z,96813.13
2023-01-25T14:53:59.785Z,96812.28
2023-01-25T14:56:35.330Z,96818.06
2023-01-25T14:59:02.824Z,96812.34
2023-01-25T15:01:31.760Z,96814.25
2023-01-25T15:03:58.326Z,96815.22
2023-01-25T15:06:24.919Z,96802.47
2023-01-25T15:08:51.331Z,96801.66
2023-01-25T15:11:45.379Z,96788.88
2023-01-25T15:14:15.407Z,96787.59
2023-01-25T15:16:42.952Z,96789.78
2023-01-25T15:19:22.518Z,96782.88
2023-01-25T15:21:48.992Z,96778.75
2023-01-25T15:24:15.544Z,96786.69
2023-01-25T15:26:41.999Z,96787.88
2023-01-25T15:29:13.842Z,96778.59
2023-01-25T15:31:40.523Z,96792.84
2023-01-25T15:34:11.439Z,96781.63
2023-01-25T15:36:37.867Z,96782.41
2023-01-25T15:39:04.444Z,96780.78
2023-01-25T15:41:30.866Z,96779.25
2023-01-25T15:43:57.301Z,96766.78
2023-01-25T15:46:25.188Z,96769.25
2023-01-25T15:48:51.654Z,96772.56
2023-01-25T15:51:18.469Z,96771.97
2023-01-25T15:53:45.256Z,96768.66
2023-01-25T15:56:22.205Z,96774.72
2023-01-25T15:58:56.991Z,96776.75
2023-01-25T16:01:24.170Z,96771.94
2023-01-25T16:03:51.022Z,96778.34
2023-01-25T16:06:23.708Z,96771.38
2023-01-25T16:08:50.288Z,96762.00
2023-01-25T16:11:16.728Z,96775.50
2023-01-25T16:13:43.146Z,96765.53
2023-01-25T16:16:17.208Z,96750.81
2023-01-25T16:18:43.643Z,96755.16
2023-01-25T16:21:12.477Z,96738.22
2023-01-25T16:23:39.434Z,96738.88
2023-01-25T16:26:15.085Z,96730.34
2023-01-25T16:28:41.514Z,96723.72
2023-01-25T16:31:16.708Z,96724.19
2023-01-25T16:33:49.256Z,96726.59
2023-01-25T16:36:17.456Z,96723.53
2023-01-25T16:38:44.426Z,96729.34
2023-01-25T16:41:13.439Z,96722.38
2023-01-25T16:43:42.927Z,96729.94
2023-01-25T16:46:17.467Z,96727.03
2023-01-25T16:48:44.917Z,96726.88
2023-01-25T16:51:18.612Z,96710.72
2023-01-25T16:53:45.684Z,96708.69
2023-01-25T16:56:18.312Z,96716.66
2023-01-25T16:58:45.522Z,96700.72
2023-01-25T17:01:12.745Z,96701.00
2023-01-25T17:03:39.450Z,96696.63
2023-01-25T17:06:06.199Z,96700.78
2023-01-25T17:08:33.295Z,96693.03
2023-01-25T17:11:04.095Z,96689.91
2023-01-25T17:13:30.522Z,96696.34
2023-01-25T17:15:57.039Z,96690.56
2023-01-25T17:18:23.516Z,96677.13
2023-01-25T17:20:57.097Z,96682.22
2023-01-25T17:23:23.594Z,96689.63
2023-01-25T17:25:50.029Z,96692.31
2023-01-25T17:28:16.474Z,96686.25
2023-01-25T17:30:43.585Z,96682.38
2023-01-25T17:33:10.152Z,96676.63
2023-01-25T17:35:37.579Z,96675.53
2023-01-25T17:38:04.025Z,96676.22
2023-01-25T17:40:30.500Z,96664.69
2023-01-25T17:42:56.968Z,96668.41
2023-01-25T17:45:23.404Z,96663.88
2023-01-25T17:47:49.900Z,96659.22
2023-01-25T17:50:16.507Z,96661.56
2023-01-25T17:52:42.979Z,96660.59
2023-01-25T17:55:09.840Z,96664.72
2023-01-25T17:57:37.271Z,96660.88
2023-01-25T18:00:07.544Z,96649.88
2023-01-25T18:02:34.081Z,96661.28
2023-01-25T18:05:00.557Z,96658.13
2023-01-25T18:07:26.995Z,96646.72
2023-01-25T18:09:53.710Z,96660.72
2023-01-25T18:12:20.755Z,96656.19
2023-01-25T18:14:47.377Z,96646.19
2023-01-25T18:17:13.805Z,96639.75
2023-01-25T18:19:40.288Z,96645.53
2023-01-25T18:22:06.752Z,96649.78
2023-01-25T18:24:34.170Z,96635.34
2023-01-25T18:27:06.088Z,96630.81
2023-01-25T18:30:01.998Z,96637.53
2023-01-25T18:32:29.886Z,96625.72
2023-01-25T18:34:56.685Z,96625.44
2023-01-25T18:37:25.709Z,96624.59
2023-01-25T18:39:53.201Z,96622.13
2023-01-25T18:42:20.668Z,96617.03
2023-01-25T18:44:48.551Z,96631.50
2023-01-25T18:47:18.620Z,96615.69
2023-01-25T18:49:52.001Z,96614.16
2023-01-25T18:52:19.682Z,96610.16
2023-01-25T18:54:46.585Z,96604.09
2023-01-25T18:57:13.676Z,96610.00
2023-01-25T18:59:40.531Z,96607.97
2023-01-25T19:02:07.804Z,96591.88
2023-01-25T19:04:34.445Z,96596.94
2023-01-25T19:07:01.683Z,96605.72
2023-01-25T19:09:28.419Z,96600.50
2023-01-25T19:11:55.252Z,96601.47
2023-01-25T19:14:22.104Z,96595.75
2023-01-25T19:16:48.851Z,96589.41
2023-01-25T19:19:15.327Z,96587.78
2023-01-25T19:21:41.855Z,96594.63
2023-01-25T19:24:12.099Z,96594.06
2023-01-25T19:26:39.026Z,96586.09
2023-01-25T19:29:05.576Z,96598.94
2023-01-25T19:31:32.672Z,96587.16
2023-01-25T19:34:00.533Z,96581.81
2023-01-25T19:36:28.567Z,96578.13
2023-01-25T19:38:55.070Z,96573.31
2023-01-25T19:41:22.721Z,96572.34
2023-01-25T19:43:52.751Z,96573.03
2023-01-25T19:46:20.709Z,96575.25
2023-01-25T19:48:49.930Z,96568.50
2023-01-25T19:51:27.654Z,96579.19
2023-01-25T19:53:54.100Z,96572.56
2023-01-25T19:56:20.614Z,96570.09
2023-01-25T19:58:48.364Z,96570.38
2023-01-25T20:01:16.618Z,96561.56
2023-01-25T20:03:43.149Z,96559.38
2023-01-25T20:06:10.405Z,96554.53
2023-01-25T20:08:38.454Z,96560.88
2023-01-25T20:11:07.385Z,96553.47
2023-01-25T20:13:33.819Z,96548.41
2023-01-25T20:16:00.470Z,96537.19
2023-01-25T20:18:27.019Z,96535.69
2023-01-25T20:20:57.580Z,96542.97
2023-01-25T20:23:24.179Z,96535.53
2023-01-25T20:25:57.721Z,96545.97
2023-01-25T20:28:24.404Z,96541.03
2023-01-25T20:30:50.933Z,96536.53
2023-01-25T20:33:18.188Z,96536.53
2023-01-25T20:35:45.283Z,96537.78
2023-01-25T20:38:11.780Z,96534.06
2023-01-25T20:40:38.314Z,96534.59
2023-01-25T20:43:04.794Z,96531.84
2023-01-25T20:45:31.319Z,96530.06
2023-01-25T20:47:57.757Z,96524.84
2023-01-25T20:50:24.202Z,96521.56
2023-01-25T20:52:50.793Z,96520.59
2023-01-25T20:55:17.272Z,96507.53
2023-01-25T20:57:43.700Z,96508.63
2023-01-25T21:00:10.833Z,96511.66
2023-01-25T21:02:40.115Z,96510.28
2023-01-25T21:05:06.768Z,96511.50
2023-01-25T21:07:33.261Z,96512.75
2023-01-25T21:09:59.698Z,96508.94
2023-01-25T21:12:26.153Z,96511.94
2023-01-25T21:14:52.751Z,96502.06
2023-01-25T21:17:19.191Z,96501.22
2023-01-25T21:19:47.730Z,96496.00
2023-01-25T21:22:14.472Z,96503.69
2023-01-25T21:24:40.960Z,96499.03
2023-01-25T21:27:08.086Z,96493.81
2023-01-25T21:29:34.572Z,96490.22
2023-01-25T21:32:01.072Z,96491.06
2023-01-25T21:34:27.543Z,96495.03
2023-01-25T21:36:54.586Z,96491.34
2023-01-25T21:39:21.110Z,96487.22
2023-01-25T21:41:47.620Z,96480.34
2023-01-25T21:44:32.827Z,96476.22
2023-01-25T21:50:04.315Z,96461.69
2023-01-25T21:52:30.806Z,96457.84
2023-01-25T21:54:57.347Z,96465.78
2023-01-25T21:57:23.798Z,96466.06
2023-01-25T21:59:51.960Z,96468.41
2023-01-25T22:02:20.258Z,96465.50
2023-01-25T22:04:46.751Z,96461.97
2023-01-25T22:07:13.196Z,96455.91
2023-01-25T22:09:39.665Z,96454.13
2023-01-25T22:12:06.163Z,96449.44
2023-01-25T22:14:32.641Z,96447.66
2023-01-25T22:16:59.100Z,96446.56
2023-01-25T22:19:25.586Z,96440.81
2023-01-25T22:21:52.103Z,96436.28
2023-01-25T22:24:18.846Z,96432.53
2023-01-25T22:26:45.315Z,96425.84
2023-01-25T22:29:12.254Z,96428.44
2023-01-25T22:31:38.864Z,96427.75
2023-01-25T22:34:05.379Z,96424.31
2023-01-25T22:36:31.888Z,96422.97
2023-01-25T22:39:00.331Z,96425.16
2023-01-25T22:41:28.490Z,96421.69
2023-01-25T22:43:55.361Z,96423.50
2023-01-25T22:46:23.147Z,96416.06
2023-01-25T22:48:49.826Z,96423.63
2023-01-25T22:51:18.321Z,96425.44
2023-01-25T22:53:44.801Z,96422.28
2023-01-25T22:56:12.533Z,96423.06
2023-01-25T22:58:39.952Z,96424.44
2023-01-25T23:01:10.565Z,96410.84
2023-01-25T23:03:37.543Z,96407.84
2023-01-25T23:06:05.586Z,96399.06
2023-01-25T23:08:33.746Z,96401.41
2023-01-25T23:11:05.297Z,96401.25
2023-01-25T23:13:32.321Z,96399.59
2023-01-25T23:16:03.234Z,96395.63
2023-01-25T23:18:48.395Z,96398.25
2023-01-25T23:21:15.666Z,96388.09
2023-01-25T23:23:43.185Z,96380.78
2023-01-25T23:26:09.665Z,96376.00
2023-01-25T23:28:37.256Z,96369.41
2023-01-25T23:31:17.726Z,96375.47
2023-01-25T23:33:45.340Z,96369.53
2023-01-25T23:36:13.850Z,96366.53
2023-01-25T23:38:40.494Z,96352.38
2023-01-25T23:41:06.934Z,96352.09
2023-01-25T23:43:33.908Z,96354.56
2023-01-25T23:46:00.508Z,96344.13
2023-01-25T23:48:27.287Z,96353.34
2023-01-25T23:50:54.318Z,96349.09
2023-01-25T23:53:20.809Z,96348.56
2023-01-25T23:55:53.429Z,96344.72
2023-01-25T23:58:20.846Z,96337.72
